createdAt,value
2023-01-11T00:01:04.059Z,2.38
2023-01-11T00:03:31.425Z,2.25
2023-01-11T00:05:58.922Z,2.50
2023-01-11T00:08:27.039Z,2.22
2023-01-11T00:10:54.182Z,2.43
2023-01-11T00:13:21.167Z,2.38
2023-01-11T00:15:47.927Z,2.75
2023-01-11T00:18:14.632Z,2.40
2023-01-11T00:20:41.666Z,2.28
2023-01-11T00:23:08.720Z,2.30
2023-01-11T00:25:35.635Z,2.05
2023-01-11T00:28:02.340Z,2.60
2023-01-11T00:30:29.077Z,2.33
2023-01-11T00:32:57.093Z,2.42
2023-01-11T00:35:24.227Z,2.27
2023-01-11T00:37:53.259Z,2.47
2023-01-11T00:40:20.500Z,2.42
2023-01-11T00:43:05.642Z,2.47
2023-01-11T00:45:50.822Z,2.00
2023-01-11T00:48:17.583Z,2.17
2023-01-11T00:50:44.298Z,2.30
2023-01-11T00:53:11.159Z,2.55
2023-01-11T00:55:37.949Z,2.50
2023-01-11T00:58:04.764Z,2.30
2023-01-11T01:00:31.509Z,2.50
2023-01-11T01:02:58.359Z,2.28
2023-01-11T01:05:25.191Z,2.20
2023-01-11T01:07:51.956Z,2.33
2023-01-11T01:10:18.896Z,2.38
2023-01-11T01:13:05.064Z,2.70
2023-01-11T01:15:32.826Z,2.20
2023-01-11T01:17:59.720Z,1.67
2023-01-11T01:20:26.599Z,2.30
2023-01-11T01:22:53.415Z,2.47
2023-01-11T01:25:20.173Z,2.10
2023-01-11T01:27:47.053Z,2.10
2023-01-11T01:30:15.671Z,2.17
2023-01-11T01:32:42.754Z,2.08
2023-01-11T01:35:09.642Z,1.92
2023-01-11T01:37:36.374Z,2.10
2023-01-11T01:40:03.912Z,2.25
2023-01-11T01:42:30.657Z,2.72
2023-01-11T01:45:01.423Z,2.20
2023-01-11T01:47:32.942Z,1.83
2023-01-11T01:50:03.388Z,2.23
2023-01-11T01:52:31.644Z,2.17
2023-01-11T01:55:00.247Z,1.75
2023-01-11T01:57:31.595Z,2.55
2023-01-11T02:00:01.873Z,2.15
2023-01-11T02:02:28.768Z,1.80
2023-01-11T02:04:56.572Z,1.77
2023-01-11T02:07:27.735Z,1.50
2023-01-11T02:10:06.543Z,1.92
2023-01-11T02:12:57.210Z,2.17
2023-01-11T02:15:24.259Z,2.03
2023-01-11T02:17:51.434Z,1.85
2023-01-11T02:20:30.024Z,1.73
2023-01-11T02:23:17.841Z,1.48
2023-01-11T02:26:15.952Z,1.63
2023-01-11T02:29:16.560Z,1.83
2023-01-11T02:32:25.046Z,2.00
2023-01-11T02:35:35.299Z,1.90
2023-01-11T02:38:09.985Z,2.10
2023-01-11T02:41:10.781Z,2.00
2023-01-11T02:44:06.116Z,2.00
2023-01-11T02:46:44.517Z,2.00
2023-01-11T02:49:14.196Z,2.40
2023-01-11T02:51:44.507Z,2.42
2023-01-11T02:54:12.103Z,2.90
2023-01-11T02:56:44.258Z,2.58
2023-01-11T02:59:13.644Z,2.28
2023-01-11T03:01:47.656Z,2.22
2023-01-11T03:04:34.627Z,2.13
2023-01-11T03:07:29.293Z,2.15
2023-01-11T03:10:19.845Z,2.37
2023-01-11T03:12:52.679Z,2.45
2023-01-11T03:15:49.715Z,2.50
2023-01-11T03:18:27.113Z,2.47
2023-01-11T03:21:12.822Z,2.55
2023-01-11T03:23:49.451Z,3.33
2023-01-11T03:26:30.357Z,2.47
2023-01-11T03:29:19.429Z,2.33
2023-01-11T03:32:21.160Z,2.90
2023-01-11T03:35:01.613Z,2.83
2023-01-11T03:37:37.361Z,2.30
2023-01-11T03:40:07.105Z,2.80
2023-01-11T03:42:34.244Z,2.50
2023-01-11T03:45:01.607Z,2.40
2023-01-11T03:47:30.323Z,2.20
2023-01-11T03:50:05.096Z,3.00
2023-01-11T03:52:35.936Z,2.20
2023-01-11T03:55:04.885Z,2.20
2023-01-11T03:57:33.939Z,2.95
2023-01-11T04:00:00.639Z,2.53
2023-01-11T04:02:33.979Z,2.30
2023-01-11T04:05:00.981Z,2.00
2023-01-11T04:07:28.346Z,3.25
2023-01-11T04:09:55.091Z,3.25
2023-01-11T04:12:21.779Z,2.75
2023-01-11T04:14:48.473Z,3.47
2023-01-11T04:17:15.166Z,3.55
2023-01-11T04:19:41.911Z,3.40
2023-01-11T04:22:08.637Z,2.70
2023-01-11T04:24:35.346Z,3.47
2023-01-11T04:27:02.093Z,4.27
2023-01-11T04:29:28.830Z,5.82
2023-01-11T04:31:55.713Z,7.28
2023-01-11T04:34:22.478Z,8.23
2023-01-11T04:36:49.179Z,6.72
2023-01-11T04:39:15.886Z,6.10
2023-01-11T04:42:01.314Z,4.88
2023-01-11T04:44:27.989Z,3.22
2023-01-11T04:46:54.672Z,2.88
2023-01-11T04:49:21.370Z,3.05
2023-01-11T04:51:48.191Z,3.70
2023-01-11T04:54:16.153Z,3.40
2023-01-11T04:56:42.855Z,3.67
2023-01-11T04:59:09.565Z,3.45
2023-01-11T05:01:36.495Z,3.92
2023-01-11T05:04:03.311Z,4.03
2023-01-11T05:06:30.179Z,4.20
2023-01-11T05:08:56.978Z,3.53
2023-01-11T05:11:23.718Z,3.97
2023-01-11T05:13:50.990Z,3.97
2023-01-11T05:16:20.601Z,4.17
2023-01-11T05:18:50.116Z,3.85
2023-01-11T05:21:20.245Z,3.97
2023-01-11T05:23:47.401Z,4.15
2023-01-11T05:26:20.036Z,4.15
2023-01-11T05:28:47.026Z,3.90
2023-01-11T05:31:13.845Z,3.63
2023-01-11T05:33:40.698Z,4.22
2023-01-11T05:36:10.836Z,3.13
2023-01-11T05:38:37.671Z,3.92
2023-01-11T05:41:10.201Z,4.70
2023-01-11T05:43:58.024Z,3.92
2023-01-11T05:46:26.358Z,4.13
2023-01-11T05:48:54.853Z,3.45
2023-01-11T05:51:22.744Z,3.17
2023-01-11T05:53:49.577Z,3.87
2023-01-11T05:56:16.269Z,4.30
2023-01-11T05:58:42.932Z,3.47
2023-01-11T06:01:12.425Z,4.30
2023-01-11T06:03:39.218Z,3.88
2023-01-11T06:06:06.205Z,3.50
2023-01-11T06:08:33.157Z,4.90
2023-01-11T06:11:00.193Z,4.13
2023-01-11T06:13:27.243Z,4.05
2023-01-11T06:15:54.504Z,5.03
2023-01-11T06:18:21.725Z,4.82
2023-01-11T06:20:52.451Z,5.10
2023-01-11T06:23:19.347Z,5.90
2023-01-11T06:25:46.665Z,5.68
2023-01-11T06:28:13.842Z,4.85
2023-01-11T06:30:40.996Z,5.13
2023-01-11T06:33:08.088Z,4.60
2023-01-11T06:35:39.697Z,4.80
2023-01-11T06:38:08.454Z,5.15
2023-01-11T06:40:35.843Z,5.20
2023-01-11T06:43:02.735Z,4.15
2023-01-11T06:45:30.453Z,5.25
2023-01-11T06:47:57.599Z,5.05
2023-01-11T06:50:24.671Z,4.63
2023-01-11T06:52:59.144Z,5.35
2023-01-11T06:55:27.884Z,4.80
2023-01-11T06:57:55.225Z,4.80
2023-01-11T07:00:22.617Z,5.13
2023-01-11T07:02:49.541Z,4.38
2023-01-11T07:05:19.187Z,5.20
2023-01-11T07:07:46.473Z,4.53
2023-01-11T07:10:15.185Z,4.53
2023-01-11T07:12:42.356Z,4.32
2023-01-11T07:15:10.329Z,4.75
2023-01-11T07:17:37.147Z,4.47
2023-01-11T07:20:05.514Z,5.10
2023-01-11T07:22:36.173Z,5.18
2023-01-11T07:25:04.717Z,4.65
2023-01-11T07:27:31.786Z,4.47
2023-01-11T07:30:01.308Z,4.72
2023-01-11T07:32:28.720Z,4.43
2023-01-11T07:34:56.174Z,4.97
2023-01-11T07:37:28.953Z,6.32
2023-01-11T07:39:56.167Z,5.13
2023-01-11T07:42:41.554Z,5.00
2023-01-11T07:45:08.765Z,4.70
2023-01-11T07:47:35.486Z,4.78
2023-01-11T07:50:02.246Z,5.20
2023-01-11T07:52:29.045Z,5.22
2023-01-11T07:55:02.140Z,5.78
2023-01-11T07:57:29.981Z,5.60
2023-01-11T07:59:56.860Z,4.90
2023-01-11T08:02:25.321Z,5.10
2023-01-11T08:04:52.189Z,5.35
2023-01-11T08:07:18.922Z,6.15
2023-01-11T08:09:45.646Z,6.20
2023-01-11T08:12:30.869Z,6.43
2023-01-11T08:15:00.449Z,5.32
2023-01-11T08:17:27.614Z,6.40
2023-01-11T08:19:55.914Z,5.63
2023-01-11T08:22:22.844Z,5.80
2023-01-11T08:24:49.828Z,5.70
2023-01-11T08:27:16.549Z,5.68
2023-01-11T08:29:44.321Z,5.68
2023-01-11T08:32:12.321Z,6.10
2023-01-11T08:34:39.436Z,6.80
2023-01-11T08:37:06.279Z,6.80
2023-01-11T08:39:33.419Z,6.50
2023-01-11T08:42:00.636Z,5.95
2023-01-11T08:44:34.993Z,5.18
2023-01-11T08:47:03.179Z,5.00
2023-01-11T08:49:30.638Z,4.78
2023-01-11T08:51:57.691Z,5.18
2023-01-11T08:54:25.146Z,5.28
2023-01-11T08:56:52.010Z,5.25
2023-01-11T08:59:20.057Z,5.43
2023-01-11T09:01:47.288Z,4.97
2023-01-11T09:04:24.109Z,5.28
2023-01-11T09:06:51.875Z,5.22
2023-01-11T09:09:18.615Z,5.30
2023-01-11T09:11:54.661Z,4.63
2023-01-11T09:14:22.623Z,4.40
2023-01-11T09:16:51.779Z,4.28
2023-01-11T09:19:18.592Z,4.30
2023-01-11T09:21:46.466Z,4.70
2023-01-11T09:24:14.078Z,5.00
2023-01-11T09:26:43.336Z,5.00
2023-01-11T09:29:11.256Z,4.90
2023-01-11T09:31:42.870Z,4.95
2023-01-11T09:34:12.867Z,5.43
2023-01-11T09:36:40.601Z,5.40
2023-01-11T09:39:15.074Z,4.78
2023-01-11T09:42:19.265Z,5.10
2023-01-11T09:44:53.115Z,4.90
2023-01-11T09:48:04.788Z,4.15
2023-01-11T09:50:41.737Z,5.50
2023-01-11T09:53:17.518Z,4.55
2023-01-11T09:55:46.920Z,4.60
2023-01-11T09:58:33.410Z,4.65
2023-01-11T10:01:10.775Z,4.45
2023-01-11T10:04:06.284Z,3.90
2023-01-11T10:07:21.292Z,3.70
2023-01-11T10:18:42.660Z,3.97
2023-01-11T10:19:18.524Z,4.20
2023-01-11T10:21:50.723Z,4.03
2023-01-11T10:24:23.880Z,3.83
2023-01-11T10:26:51.644Z,4.68
2023-01-11T10:29:59.344Z,4.70
2023-01-11T10:32:59.142Z,4.03
2023-01-11T10:35:48.996Z,4.00
2023-01-11T10:38:47.320Z,4.30
2023-01-11T10:41:25.836Z,4.53
2023-01-11T10:44:10.081Z,4.82
2023-01-11T10:46:44.838Z,5.00
2023-01-11T10:49:50.307Z,4.72
2023-01-11T10:52:41.511Z,4.80
2023-01-11T10:55:17.785Z,4.90
2023-01-11T10:58:01.240Z,5.30
2023-01-11T11:00:39.483Z,4.73
2023-01-11T11:03:39.038Z,4.70
2023-01-11T11:06:33.496Z,3.83
2023-01-11T11:09:35.529Z,4.72
2023-01-11T11:12:24.214Z,4.30
2023-01-11T11:15:46.294Z,4.00
2023-01-11T11:18:18.656Z,4.15
2023-01-11T11:20:47.464Z,3.30
2023-01-11T11:23:21.959Z,3.45
2023-01-11T11:25:51.817Z,4.25
2023-01-11T11:28:30.595Z,4.30
2023-01-11T11:31:03.180Z,4.13
2023-01-11T11:33:38.326Z,4.03
2023-01-11T11:36:12.858Z,4.07
2023-01-11T11:38:42.505Z,3.88
2023-01-11T11:41:15.016Z,4.33
2023-01-11T11:43:43.644Z,4.50
2023-01-11T11:46:20.180Z,4.43
2023-01-11T11:49:15.243Z,4.70
2023-01-11T11:51:43.460Z,5.10
2023-01-11T11:54:31.661Z,4.10
2023-01-11T11:57:01.171Z,4.07
2023-01-11T11:59:29.992Z,4.68
2023-01-11T12:02:00.975Z,4.65
2023-01-11T12:04:47.509Z,5.03
2023-01-11T12:07:22.414Z,4.70
2023-01-11T12:09:55.055Z,4.50
2023-01-11T12:12:25.897Z,4.63
2023-01-11T12:15:07.962Z,4.70
2023-01-11T12:17:35.115Z,4.40
2023-01-11T12:20:02.024Z,5.10
2023-01-11T12:22:29.141Z,5.10
2023-01-11T12:25:08.316Z,5.38
2023-01-11T12:27:55.319Z,4.60
2023-01-11T12:30:27.140Z,4.80
2023-01-11T12:33:12.573Z,5.00
2023-01-11T12:35:41.955Z,5.20
2023-01-11T12:38:18.127Z,4.93
2023-01-11T12:41:04.312Z,4.80
2023-01-11T12:43:44.458Z,4.60
2023-01-11T12:46:34.394Z,4.80
2023-01-11T12:49:16.247Z,4.55
2023-01-11T12:52:20.547Z,4.78
2023-01-11T12:55:20.789Z,4.30
2023-01-11T12:58:08.889Z,4.88
2023-01-11T13:00:57.128Z,5.33
2023-01-11T13:03:48.479Z,4.80
2023-01-11T13:06:21.396Z,4.35
2023-01-11T13:09:03.257Z,4.30
2023-01-11T13:11:57.593Z,4.13
2023-01-11T13:14:49.597Z,3.97
2023-01-11T13:17:22.253Z,5.10
2023-01-11T13:20:16.935Z,4.30
2023-01-11T13:22:47.962Z,5.43
2023-01-11T13:25:18.930Z,4.90
2023-01-11T13:27:46.518Z,4.73
2023-01-11T13:30:14.732Z,4.85
2023-01-11T13:32:43.227Z,4.88
2023-01-11T13:35:24.738Z,5.53
2023-01-11T13:37:58.752Z,6.22
2023-01-11T13:40:36.118Z,4.50
2023-01-11T13:43:10.138Z,4.50
2023-01-11T13:45:48.712Z,4.95
2023-01-11T13:48:29.860Z,5.00
2023-01-11T13:51:04.585Z,4.82
2023-01-11T13:53:42.537Z,4.30
2023-01-11T13:56:18.843Z,4.90
2023-01-11T13:59:04.135Z,5.10
2023-01-11T14:01:48.040Z,5.38
2023-01-11T14:04:21.310Z,5.35
2023-01-11T14:07:13.069Z,5.63
2023-01-11T14:09:53.937Z,6.15
2023-01-11T14:12:32.617Z,6.32
2023-01-11T14:15:02.131Z,7.05
2023-01-11T14:18:09.358Z,6.90
2023-01-11T14:21:19.207Z,5.77
2023-01-11T14:23:55.242Z,6.10
2023-01-11T14:26:59.695Z,6.20
2023-01-11T14:29:29.448Z,6.03
2023-01-11T14:32:32.887Z,5.85
2023-01-11T14:35:37.391Z,5.63
2023-01-11T14:38:31.861Z,5.50
2023-01-11T14:41:11.697Z,6.30
2023-01-11T14:44:23.492Z,4.95
2023-01-11T14:47:35.442Z,4.47
2023-01-11T14:50:14.336Z,5.17
2023-01-11T14:52:41.661Z,5.13
2023-01-11T14:55:18.077Z,4.90
2023-01-11T14:58:01.441Z,5.28
2023-01-11T15:00:28.161Z,4.97
2023-01-11T15:03:00.755Z,5.10
2023-01-11T15:05:33.567Z,5.90
2023-01-11T15:08:31.526Z,5.18
2023-01-11T15:10:59.902Z,5.25
2023-01-11T15:13:45.539Z,4.93
2023-01-11T15:16:37.960Z,4.17
2023-01-11T15:19:07.131Z,4.97
2023-01-11T15:21:40.691Z,5.90
2023-01-11T15:24:22.232Z,7.72
2023-01-11T15:26:49.314Z,6.13
2023-01-11T15:29:42.695Z,5.57
2023-01-11T15:32:30.163Z,5.15
2023-01-11T15:35:36.203Z,6.90
2023-01-11T15:38:13.700Z,5.88
2023-01-11T15:40:46.538Z,6.07
2023-01-11T15:43:32.050Z,7.00
2023-01-11T15:46:49.669Z,7.20
2023-01-11T15:49:41.841Z,9.05
2023-01-11T15:52:39.445Z,9.70
2023-01-11T15:55:21.153Z,12.15
2023-01-11T15:58:32.216Z,14.07
2023-01-11T16:00:59.109Z,12.52
2023-01-11T16:03:44.969Z,12.02
2023-01-11T16:06:47.664Z,8.30
2023-01-11T16:09:31.070Z,8.52
2023-01-11T16:12:23.275Z,8.57
2023-01-11T16:15:01.912Z,7.38
2023-01-11T16:17:29.457Z,7.97
2023-01-11T16:19:57.112Z,8.55
2023-01-11T16:22:28.286Z,8.77
2023-01-11T16:25:01.407Z,7.80
2023-01-11T16:27:32.303Z,8.35
2023-01-11T16:29:59.300Z,8.52
2023-01-11T16:32:33.889Z,8.10
2023-01-11T16:35:01.834Z,8.10
2023-01-11T16:37:35.129Z,7.13
2023-01-11T16:40:11.259Z,7.68
2023-01-11T16:43:00.837Z,9.18
2023-01-11T16:45:45.055Z,8.45
2023-01-11T16:48:16.124Z,8.02
2023-01-11T16:50:58.637Z,8.50
2023-01-11T16:53:26.810Z,9.45
2023-01-11T16:56:02.941Z,9.20
2023-01-11T16:58:32.527Z,9.77
2023-01-11T17:01:04.769Z,9.95
2023-01-11T17:03:35.208Z,11.57
2023-01-11T17:06:08.143Z,12.38
2023-01-11T17:08:42.712Z,14.30
2023-01-11T17:11:32.876Z,13.20
2023-01-11T17:14:38.535Z,11.07
2023-01-11T17:17:07.840Z,11.00
2023-01-11T17:19:36.950Z,9.70
2023-01-11T17:22:13.451Z,10.43
2023-01-11T17:24:43.121Z,7.97
2023-01-11T17:27:18.372Z,8.52
2023-01-11T17:29:47.372Z,8.50
2023-01-11T17:32:32.873Z,10.02
2023-01-11T17:35:02.375Z,9.48
2023-01-11T17:37:29.266Z,8.70
2023-01-11T17:39:57.884Z,8.98
2023-01-11T17:42:43.780Z,8.27
2023-01-11T17:45:24.837Z,9.73
2023-01-11T17:47:53.232Z,8.98
2023-01-11T17:50:22.382Z,9.23
2023-01-11T17:52:54.704Z,8.98
2023-01-11T17:55:25.391Z,8.37
2023-01-11T17:58:19.279Z,9.60
2023-01-11T18:01:13.695Z,10.10
2023-01-11T18:03:49.762Z,8.80
2023-01-11T18:06:35.761Z,9.25
2023-01-11T18:09:18.538Z,9.40
2023-01-11T18:11:45.385Z,8.90
2023-01-11T18:14:27.293Z,8.80
2023-01-11T18:17:01.253Z,9.35
2023-01-11T18:19:54.302Z,9.05
2023-01-11T18:22:37.112Z,9.30
2023-01-11T18:25:39.567Z,9.15
2023-01-11T18:28:12.218Z,8.60
2023-01-11T18:30:41.170Z,9.20
2023-01-11T18:33:13.339Z,8.73
2023-01-11T18:35:44.420Z,7.85
2023-01-11T18:38:17.888Z,8.27
2023-01-11T18:40:45.848Z,8.48
2023-01-11T18:43:13.025Z,8.60
2023-01-11T18:45:41.250Z,8.65
2023-01-11T18:48:14.965Z,8.80
2023-01-11T18:50:42.778Z,7.88
2023-01-11T18:53:13.925Z,9.30
2023-01-11T18:55:41.065Z,7.97
2023-01-11T18:58:09.879Z,8.32
2023-01-11T19:00:37.221Z,9.33
2023-01-11T19:03:05.053Z,8.35
2023-01-11T19:05:31.930Z,7.80
2023-01-11T19:07:58.802Z,6.22
2023-01-11T19:10:26.770Z,8.23
2023-01-11T19:12:53.585Z,9.30
2023-01-11T19:15:21.000Z,8.55
2023-01-11T19:17:48.100Z,9.10
2023-01-11T19:20:15.311Z,9.85
2023-01-11T19:22:42.371Z,9.65
2023-01-11T19:25:11.476Z,9.25
2023-01-11T19:27:38.464Z,10.48
2023-01-11T19:30:06.555Z,10.57
2023-01-11T19:32:33.955Z,9.50
2023-01-11T19:35:01.450Z,12.75
2023-01-11T19:37:30.060Z,16.17
2023-01-11T19:39:57.018Z,14.20
2023-01-11T19:42:23.930Z,12.85
2023-01-11T19:44:51.452Z,11.68
2023-01-11T19:47:18.815Z,12.60
2023-01-11T19:49:45.580Z,11.80
2023-01-11T19:52:18.832Z,10.98
2023-01-11T19:54:46.888Z,10.95
2023-01-11T19:57:17.871Z,10.88
2023-01-11T19:59:45.106Z,10.07
2023-01-11T20:02:12.949Z,10.00
2023-01-11T20:04:40.288Z,10.15
2023-01-11T20:07:08.088Z,8.85
2023-01-11T20:09:37.778Z,8.40
2023-01-11T20:12:15.985Z,8.38
2023-01-11T20:14:44.533Z,7.07
2023-01-11T20:17:11.876Z,7.10
2023-01-11T20:19:38.790Z,6.85
2023-01-11T20:22:05.777Z,7.10
2023-01-11T20:24:32.547Z,6.40
2023-01-11T20:27:01.188Z,6.60
2023-01-11T20:29:28.090Z,5.72
2023-01-11T20:31:55.762Z,5.15
2023-01-11T20:34:22.724Z,5.43
2023-01-11T20:36:49.760Z,5.60
2023-01-11T20:39:17.513Z,5.27
2023-01-11T20:41:47.211Z,5.57
2023-01-11T20:44:32.101Z,4.43
2023-01-11T20:46:59.511Z,4.05
2023-01-11T20:49:28.940Z,5.75
2023-01-11T20:51:56.445Z,5.77
2023-01-11T20:54:23.335Z,6.28
2023-01-11T20:56:50.511Z,4.82
2023-01-11T20:59:20.178Z,4.97
2023-01-11T21:01:48.345Z,4.78
2023-01-11T21:04:16.498Z,4.70
2023-01-11T21:06:45.458Z,4.50
2023-01-11T21:09:14.759Z,4.78
2023-01-11T21:11:41.801Z,8.05
2023-01-11T21:14:12.127Z,6.75
2023-01-11T21:16:43.010Z,5.47
2023-01-11T21:19:14.607Z,4.72
2023-01-11T21:21:42.012Z,4.47
2023-01-11T21:24:12.377Z,5.15
2023-01-11T21:26:39.290Z,4.93
2023-01-11T21:29:06.286Z,7.97
2023-01-11T21:31:34.808Z,7.50
2023-01-11T21:34:02.289Z,6.78
2023-01-11T21:36:30.568Z,6.20
2023-01-11T21:38:58.595Z,5.75
2023-01-11T21:41:46.346Z,5.23
2023-01-11T21:44:14.124Z,6.68
2023-01-11T21:46:41.171Z,6.90
2023-01-11T21:49:08.142Z,6.10
2023-01-11T21:51:35.355Z,7.05
2023-01-11T21:54:10.730Z,6.78
2023-01-11T21:56:37.916Z,7.10
2023-01-11T21:59:04.750Z,7.05
2023-01-11T22:01:31.689Z,7.25
2023-01-11T22:03:58.510Z,6.57
2023-01-11T22:06:25.304Z,7.50
2023-01-11T22:08:52.391Z,6.72
2023-01-11T22:11:19.178Z,6.90
2023-01-11T22:13:45.956Z,6.88
2023-01-11T22:16:17.633Z,8.45
2023-01-11T22:18:45.501Z,7.87
2023-01-11T22:21:14.380Z,9.82
2023-01-11T22:23:41.641Z,10.05
2023-01-11T22:26:10.796Z,10.25
2023-01-11T22:28:57.492Z,11.55
2023-01-11T22:31:25.078Z,9.37
2023-01-11T22:33:51.946Z,7.20
2023-01-11T22:36:19.348Z,6.03
2023-01-11T22:38:46.858Z,6.28
2023-01-11T22:41:14.857Z,6.38
2023-01-11T22:43:43.072Z,7.13
2023-01-11T22:46:15.438Z,5.75
2023-01-11T22:48:42.445Z,6.80
2023-01-11T22:51:10.305Z,6.45
2023-01-11T22:53:41.114Z,5.75
2023-01-11T22:56:08.872Z,5.93
2023-01-11T22:58:38.460Z,6.03
2023-01-11T23:01:54.202Z,5.97
2023-01-11T23:04:20.964Z,10.90
2023-01-11T23:06:47.888Z,10.02
2023-01-11T23:09:16.720Z,9.50
2023-01-11T23:12:02.825Z,9.05
2023-01-11T23:14:33.742Z,8.70
2023-01-11T23:17:07.108Z,8.07
2023-01-11T23:19:38.981Z,8.80
2023-01-11T23:22:06.630Z,8.63
2023-01-11T23:24:33.448Z,9.10
2023-01-11T23:27:00.293Z,7.47
2023-01-11T23:29:27.241Z,9.48
2023-01-11T23:31:54.026Z,11.23
2023-01-11T23:34:20.831Z,11.67
2023-01-11T23:36:47.579Z,11.05
2023-01-11T23:39:15.798Z,11.30
2023-01-11T23:42:01.249Z,11.70
2023-01-11T23:44:27.990Z,10.98
2023-01-11T23:47:13.150Z,10.60
2023-01-11T23:49:39.991Z,10.75
2023-01-11T23:52:06.797Z,10.35
2023-01-11T23:54:34.138Z,9.30
2023-01-11T23:57:01.954Z,10.05
2023-01-11T23:59:28.812Z,12.33
